Eaton, Colorado
Current Conditions -  °F | °C
As of 5:35 AM on Monday 22 Dec 2014 (Local Time) from KGXY Reporting Station
Clear Clear  
Wind Chill: -4°   Ceiling: Unl
Heat Index:   Visibility: 10mi
Dew Point: -7°   Wind: 15mph
Humidity: 56%   Direction: 320°NW
Pressure: 29.72"   Gusts: NA
Location:  40.53°N, 104.71°W
Report Text: KGXY 221235Z AUTO 32013KT 10SM CLR 01/M07 A2972 RMK AO1
Loading
Personal Weather Stations






























Interactive Weather Map New forecast layout! Learn more

10-Day Weather Forecast

Advertisements
Track Severe Weather on mobile